createdAt,value
2018-12-24T00:00:01.891Z,6.31
2018-12-24T00:05:01.196Z,6.24
2018-12-24T00:10:01.537Z,6.24
2018-12-24T00:15:01.228Z,6.13
2018-12-24T00:20:01.575Z,6.07
2018-12-24T00:25:01.866Z,6
2018-12-24T00:30:01.175Z,5.96
2018-12-24T00:35:01.486Z,5.78
2018-12-24T00:40:01.917Z,5.82
2018-12-24T00:45:01.174Z,5.75
2018-12-24T00:50:01.498Z,5.81
2018-12-24T00:55:01.818Z,5.71
2018-12-24T01:00:02.069Z,5.7
2018-12-24T01:05:01.357Z,5.7
2018-12-24T01:10:01.718Z,5.66
2018-12-24T01:15:02.005Z,5.54
2018-12-24T01:20:01.267Z,5.53
2018-12-24T01:25:01.551Z,5.42
2018-12-24T01:30:01.865Z,5.31
2018-12-24T01:35:01.154Z,5.19
2018-12-24T01:40:01.502Z,5.15
2018-12-24T01:45:01.805Z,5.15
2018-12-24T01:50:02.131Z,5.08
2018-12-24T01:55:01.455Z,5.12
2018-12-24T02:00:01.874Z,5.12
2018-12-24T02:05:01.271Z,5.19
2018-12-24T02:10:02.075Z,5.17
2018-12-24T02:15:01.329Z,5.2
2018-12-24T02:20:01.649Z,5.13
2018-12-24T02:25:01.927Z,5.21
2018-12-24T02:30:01.201Z,5.21
2018-12-24T02:35:01.544Z,5.17
2018-12-24T02:40:01.830Z,5.18
2018-12-24T02:45:01.181Z,5.22
2018-12-24T02:50:01.459Z,5.17
2018-12-24T02:55:01.749Z,5.2
2018-12-24T03:00:02.023Z,5.21
2018-12-24T03:05:01.346Z,5.22
2018-12-24T03:10:01.666Z,5.32
2018-12-24T03:15:01.957Z,5.33
2018-12-24T03:20:01.396Z,5.26
2018-12-24T03:25:01.663Z,5.37
2018-12-24T03:30:01.970Z,5.39
2018-12-24T03:35:01.145Z,5.3
2018-12-24T03:40:01.411Z,5.4
2018-12-24T03:45:01.706Z,5.33
2018-12-24T03:50:02.018Z,5.5
2018-12-24T03:55:01.299Z,5.49
2018-12-24T04:00:01.604Z,5.39
2018-12-24T04:05:01.948Z,5.5
2018-12-24T04:10:01.211Z,5.55
2018-12-24T04:15:01.552Z,5.53
2018-12-24T04:20:01.868Z,5.53
2018-12-24T04:25:01.137Z,5.54
2018-12-24T04:30:01.509Z,5.53
2018-12-24T04:35:01.870Z,5.52
2018-12-24T04:40:01.182Z,5.36
2018-12-24T04:45:01.486Z,5.49
2018-12-24T04:50:01.818Z,5.53
2018-12-24T04:55:01.125Z,5.53
2018-12-24T05:00:01.455Z,5.42
2018-12-24T05:05:01.774Z,5.52
2018-12-24T05:10:02.056Z,5.53
2018-12-24T05:15:01.285Z,5.57
2018-12-24T05:20:01.603Z,5.52
2018-12-24T05:25:01.908Z,5.53
2018-12-24T05:30:01.203Z,5.49
2018-12-24T05:35:01.491Z,5.56
2018-12-24T05:40:02.200Z,5.56
2018-12-24T05:45:01.436Z,5.59
2018-12-24T05:50:01.714Z,5.5
2018-12-24T05:55:01.978Z,5.49
2018-12-24T06:00:01.233Z,5.55
2018-12-24T06:05:01.572Z,5.56
2018-12-24T06:10:01.916Z,5.55
2018-12-24T06:15:01.186Z,5.6
2018-12-24T06:20:01.500Z,5.61
2018-12-24T06:25:01.807Z,5.62
2018-12-24T06:30:01.110Z,5.57
2018-12-24T06:35:01.430Z,5.61
2018-12-24T06:40:01.753Z,5.67
2018-12-24T06:45:02.024Z,5.54
2018-12-24T06:50:01.276Z,5.56
2018-12-24T06:55:01.554Z,5.56
2018-12-24T07:00:01.880Z,5.65
2018-12-24T07:05:01.189Z,5.64
2018-12-24T07:10:01.489Z,5.6
2018-12-24T07:15:01.777Z,5.46
2018-12-24T07:20:02.096Z,5.54
2018-12-24T07:25:01.372Z,5.49
2018-12-24T07:30:01.625Z,5.64
2018-12-24T07:35:01.933Z,5.57
2018-12-24T07:40:01.222Z,5.62
2018-12-24T07:45:01.501Z,5.62
2018-12-24T07:50:01.786Z,5.53
2018-12-24T07:55:02.044Z,5.52
2018-12-24T08:00:01.330Z,5.61
2018-12-24T08:05:01.634Z,5.6
2018-12-24T08:10:01.900Z,5.56
2018-12-24T08:15:01.203Z,5.63
2018-12-24T08:20:01.514Z,5.59
2018-12-24T08:25:01.785Z,5.54
2018-12-24T08:30:02.068Z,5.55
2018-12-24T08:35:01.379Z,5.6
2018-12-24T08:40:01.663Z,5.63
2018-12-24T08:45:01.978Z,5.61
2018-12-24T08:50:01.276Z,5.61
2018-12-24T08:55:01.568Z,5.64
2018-12-24T09:00:01.879Z,5.56
2018-12-24T09:05:01.186Z,5.52
2018-12-24T09:10:01.491Z,5.46
2018-12-24T09:15:01.805Z,5.42
2018-12-24T09:20:01.121Z,5.39
2018-12-24T09:25:01.427Z,5.56
2018-12-24T09:30:01.731Z,5.59
2018-12-24T09:35:02.033Z,5.49
2018-12-24T09:40:01.394Z,5.65
2018-12-24T09:45:01.688Z,5.56
2018-12-24T09:50:01.984Z,5.32
2018-12-24T09:55:01.238Z,5.32
2018-12-24T10:00:01.546Z,5.32
2018-12-24T10:05:01.858Z,5.32
2018-12-24T10:10:01.168Z,5.31
2018-12-24T10:15:07.630Z,5.3
2018-12-24T10:20:01.552Z,5.32
2018-12-24T10:25:01.858Z,5.33
2018-12-24T10:30:01.158Z,5.33
2018-12-24T10:35:01.457Z,5.37
2018-12-24T10:40:01.729Z,5.31
2018-12-24T10:45:02.015Z,5.36
2018-12-24T10:50:01.307Z,5.37
2018-12-24T10:55:01.604Z,5.49
2018-12-24T11:00:01.896Z,5.48
2018-12-24T11:05:01.221Z,5.43
2018-12-24T11:10:01.521Z,5.47
2018-12-24T11:15:01.805Z,5.43
2018-12-24T11:20:02.063Z,5.34
2018-12-24T11:25:01.341Z,5.36
2018-12-24T11:30:01.650Z,5.38
2018-12-24T11:35:02.048Z,5.39
2018-12-24T11:40:01.372Z,5.25
2018-12-24T11:45:01.689Z,5.2
2018-12-24T11:50:01.991Z,5.31
2018-12-24T11:55:01.243Z,5.35
2018-12-24T12:00:01.568Z,5.39
2018-12-24T12:05:01.875Z,5.42
2018-12-24T12:10:01.143Z,5.25
2018-12-24T12:15:01.452Z,5.28
2018-12-24T12:20:01.966Z,5.43
2018-12-24T12:25:01.385Z,5.49
2018-12-24T12:30:01.743Z,5.63
2018-12-24T12:35:02.040Z,5.62
2018-12-24T12:40:01.344Z,5.56
2018-12-24T12:45:01.656Z,5.52
2018-12-24T12:50:01.979Z,5.64
2018-12-24T12:55:01.246Z,5.54
2018-12-24T13:00:01.539Z,5.45
2018-12-24T13:05:01.912Z,5.24
2018-12-24T13:10:01.179Z,5.15
2018-12-24T13:15:01.497Z,5.13
2018-12-24T13:20:01.765Z,5.1
2018-12-24T13:25:02.047Z,5.38
2018-12-24T13:30:01.304Z,5.49
2018-12-24T13:35:01.637Z,5.46
2018-12-24T13:40:01.936Z,5.41
2018-12-24T13:45:01.187Z,5.35
2018-12-24T13:50:01.487Z,5.32
2018-12-24T13:55:01.772Z,5.25
2018-12-24T14:00:02.027Z,5.24
2018-12-24T14:05:01.292Z,5.2
2018-12-24T14:10:01.593Z,5.12
2018-12-24T14:15:01.873Z,5.08
2018-12-24T14:20:01.241Z,5.17
2018-12-24T14:25:01.679Z,5.28
2018-12-24T14:30:01.953Z,5.26
2018-12-24T14:35:01.307Z,5.23
2018-12-24T14:40:01.629Z,5.2
2018-12-24T14:45:01.962Z,5.16
2018-12-24T14:50:01.261Z,5.04
2018-12-24T14:55:01.611Z,5.07
2018-12-24T15:00:01.907Z,5
2018-12-24T15:05:01.260Z,4.97
2018-12-24T15:10:01.522Z,4.92
2018-12-24T15:15:01.826Z,4.84
2018-12-24T15:20:01.118Z,4.72
2018-12-24T15:25:01.399Z,4.56
2018-12-24T15:30:01.698Z,4.45
2018-12-24T15:35:02.014Z,4.32
2018-12-24T15:40:01.265Z,4.21
2018-12-24T15:45:01.547Z,4.28
2018-12-24T15:50:01.829Z,4.1
2018-12-24T15:55:01.101Z,3.95
2018-12-24T16:00:01.431Z,3.7
2018-12-24T16:05:01.878Z,3.56
2018-12-24T16:10:01.137Z,3.36
2018-12-24T16:15:01.435Z,3.31
2018-12-24T16:20:01.757Z,3.27
2018-12-24T16:25:02.035Z,3.16
2018-12-24T16:30:01.295Z,2.74
2018-12-24T16:35:01.621Z,2.46
2018-12-24T16:40:02.255Z,2.3
2018-12-24T16:45:03.337Z,2.25
2018-12-24T16:50:01.647Z,2
2018-12-24T16:55:02.006Z,1.84
2018-12-24T17:00:01.326Z,1.69
2018-12-24T17:05:01.628Z,1.55
2018-12-24T17:10:01.923Z,1.54
2018-12-24T17:15:01.205Z,1.48
2018-12-24T17:20:01.558Z,1.39
2018-12-24T17:25:01.887Z,1.34
2018-12-24T17:30:01.163Z,1.43
2018-12-24T17:35:01.477Z,1.31
2018-12-24T17:40:01.798Z,1.19
2018-12-24T17:45:01.100Z,1.04
2018-12-24T17:50:01.397Z,0.97
2018-12-24T17:55:01.706Z,0.93
2018-12-24T18:00:02.051Z,0.81
2018-12-24T18:05:01.335Z,0.84
2018-12-24T18:10:01.640Z,0.91
2018-12-24T18:15:01.943Z,1.04
2018-12-24T18:20:01.219Z,0.99
2018-12-24T18:25:01.522Z,0.91
2018-12-24T18:30:01.831Z,0.91
2018-12-24T18:35:01.171Z,1.01
2018-12-24T18:40:01.471Z,1.03
2018-12-24T18:45:01.755Z,0.91
2018-12-24T18:50:02.045Z,0.91
2018-12-24T18:55:01.330Z,0.87
2018-12-24T19:00:01.629Z,0.77
2018-12-24T19:05:01.924Z,0.63
2018-12-24T19:10:01.195Z,0.59
2018-12-24T19:15:01.503Z,0.68
2018-12-24T19:20:01.818Z,0.99
2018-12-24T19:25:01.111Z,0.68
2018-12-24T19:30:01.430Z,0.64
2018-12-24T19:35:01.743Z,0.47
2018-12-24T19:40:02.036Z,0.47
2018-12-24T19:45:01.301Z,0.46
2018-12-24T19:50:01.665Z,0.48
2018-12-24T19:55:01.973Z,0.51
2018-12-24T20:00:01.231Z,0.46
2018-12-24T20:05:01.566Z,0.43
2018-12-24T20:10:01.869Z,0.3
2018-12-24T20:15:01.156Z,0.31
2018-12-24T20:20:01.456Z,0.35
2018-12-24T20:25:01.780Z,0.37
2018-12-24T20:30:02.091Z,0.39
2018-12-24T20:35:01.373Z,0.64
2018-12-24T20:40:01.691Z,0.69
2018-12-24T20:45:01.984Z,0.67
2018-12-24T20:50:01.265Z,0.66
2018-12-24T20:55:01.755Z,0.63
2018-12-24T21:00:02.064Z,0.45
2018-12-24T21:05:01.342Z,0.35
2018-12-24T21:10:01.673Z,0.33
2018-12-24T21:15:01.212Z,0.33
2018-12-24T21:20:01.500Z,0.29
2018-12-24T21:25:01.788Z,0.17
2018-12-24T21:30:02.085Z,0.25
2018-12-24T21:35:01.369Z,0.16
2018-12-24T21:40:01.670Z,0.14
2018-12-24T21:45:01.976Z,0.23
2018-12-24T21:50:01.235Z,0.42
2018-12-24T21:55:01.533Z,0.17
2018-12-24T22:00:01.830Z,0.03
2018-12-24T22:05:01.137Z,-0.01
2018-12-24T22:10:01.456Z,0.02
2018-12-24T22:15:01.751Z,-0.01
2018-12-24T22:20:02.038Z,0.04
2018-12-24T22:25:01.290Z,0.05
2018-12-24T22:30:01.578Z,0.02
2018-12-24T22:35:01.892Z,-0.03
2018-12-24T22:40:01.174Z,0.02
2018-12-24T22:45:01.480Z,0.29
2018-12-24T22:50:01.797Z,0.18
2018-12-24T22:55:02.078Z,0.21
2018-12-24T23:00:01.364Z,0.52
2018-12-24T23:05:01.684Z,0.37
2018-12-24T23:10:01.972Z,0.49
2018-12-24T23:15:01.228Z,0.75
2018-12-24T23:20:01.665Z,0.76
2018-12-24T23:25:01.947Z,1.07
2018-12-24T23:30:01.225Z,1.02
2018-12-24T23:35:01.544Z,1.03
2018-12-24T23:40:01.841Z,1.1
2018-12-24T23:45:01.142Z,1.08
2018-12-24T23:50:01.405Z,1.08
2018-12-24T23:55:01.879Z,1.1
